sensor_id;sensor_type;location;lat;lon;timestamp;P1;durP1;ratioP1;P2;durP2;ratioP2
11187;SDS011;5650;52.700;7.306;2023-04-06T00:00:06;5.45;;;4.40;;
11187;SDS011;5650;52.700;7.306;2023-04-06T00:02:34;9.07;;;5.47;;
11187;SDS011;5650;52.700;7.306;2023-04-06T00:05:05;8.02;;;4.88;;
11187;SDS011;5650;52.700;7.306;2023-04-06T00:07:50;7.50;;;4.68;;
11187;SDS011;5650;52.700;7.306;2023-04-06T00:10:38;8.70;;;5.07;;
11187;SDS011;5650;52.700;7.306;2023-04-06T00:13:09;6.15;;;4.57;;
11187;SDS011;5650;52.700;7.306;2023-04-06T00:15:39;5.22;;;4.50;;
11187;SDS011;5650;52.700;7.306;2023-04-06T00:18:06;6.90;;;4.60;;
11187;SDS011;5650;52.700;7.306;2023-04-06T00:20:36;11.05;;;5.28;;
11187;SDS011;5650;52.700;7.306;2023-04-06T00:23:10;8.43;;;4.85;;
11187;SDS011;5650;52.700;7.306;2023-04-06T00:25:37;5.38;;;4.20;;
11187;SDS011;5650;52.700;7.306;2023-04-06T00:28:04;5.78;;;4.28;;
11187;SDS011;5650;52.700;7.306;2023-04-06T00:30:32;6.05;;;4.63;;
11187;SDS011;5650;52.700;7.306;2023-04-06T00:32:59;7.00;;;4.53;;
11187;SDS011;5650;52.700;7.306;2023-04-06T00:35:27;5.70;;;4.47;;
11187;SDS011;5650;52.700;7.306;2023-04-06T00:38:13;6.03;;;4.70;;
11187;SDS011;5650;52.700;7.306;2023-04-06T00:40:44;6.20;;;4.65;;
11187;SDS011;5650;52.700;7.306;2023-04-06T00:43:14;6.25;;;5.10;;
11187;SDS011;5650;52.700;7.306;2023-04-06T00:45:50;11.88;;;4.70;;
11187;SDS011;5650;52.700;7.306;2023-04-06T00:48:18;8.88;;;4.78;;
11187;SDS011;5650;52.700;7.306;2023-04-06T00:50:51;6.28;;;4.85;;
11187;SDS011;5650;52.700;7.306;2023-04-06T00:53:28;9.15;;;5.55;;
11187;SDS011;5650;52.700;7.306;2023-04-06T00:55:59;9.30;;;5.20;;
11187;SDS011;5650;52.700;7.306;2023-04-06T00:58:29;6.90;;;4.70;;
11187;SDS011;5650;52.700;7.306;2023-04-06T01:00:57;6.15;;;4.30;;
11187;SDS011;5650;52.700;7.306;2023-04-06T01:03:24;7.03;;;5.20;;
11187;SDS011;5650;52.700;7.306;2023-04-06T01:05:52;8.63;;;5.20;;
11187;SDS011;5650;52.700;7.306;2023-04-06T01:08:26;8.18;;;4.80;;
11187;SDS011;5650;52.700;7.306;2023-04-06T01:10:55;6.15;;;4.90;;
11187;SDS011;5650;52.700;7.306;2023-04-06T01:13:25;10.07;;;5.03;;
11187;SDS011;5650;52.700;7.306;2023-04-06T01:15:59;7.43;;;4.55;;
11187;SDS011;5650;52.700;7.306;2023-04-06T01:18:26;7.40;;;4.82;;
11187;SDS011;5650;52.700;7.306;2023-04-06T01:20:59;9.52;;;4.82;;
11187;SDS011;5650;52.700;7.306;2023-04-06T01:23:31;5.95;;;4.57;;
11187;SDS011;5650;52.700;7.306;2023-04-06T01:25:59;6.82;;;4.50;;
11187;SDS011;5650;52.700;7.306;2023-04-06T01:28:26;9.52;;;4.80;;
11187;SDS011;5650;52.700;7.306;2023-04-06T01:31:05;6.32;;;5.00;;
11187;SDS011;5650;52.700;7.306;2023-04-06T01:33:33;6.97;;;5.13;;
11187;SDS011;5650;52.700;7.306;2023-04-06T01:36:00;8.27;;;4.65;;
11187;SDS011;5650;52.700;7.306;2023-04-06T01:38:28;7.85;;;4.70;;
11187;SDS011;5650;52.700;7.306;2023-04-06T01:40:59;6.03;;;4.78;;
11187;SDS011;5650;52.700;7.306;2023-04-06T01:43:36;7.25;;;4.90;;
11187;SDS011;5650;52.700;7.306;2023-04-06T01:46:03;7.78;;;4.82;;
11187;SDS011;5650;52.700;7.306;2023-04-06T01:48:31;7.60;;;4.97;;
11187;SDS011;5650;52.700;7.306;2023-04-06T01:51:01;6.97;;;4.78;;
11187;SDS011;5650;52.700;7.306;2023-04-06T01:53:28;7.32;;;4.78;;
11187;SDS011;5650;52.700;7.306;2023-04-06T01:56:03;5.55;;;4.45;;
11187;SDS011;5650;52.700;7.306;2023-04-06T01:58:31;7.18;;;4.90;;
11187;SDS011;5650;52.700;7.306;2023-04-06T02:00:59;5.63;;;4.80;;
11187;SDS011;5650;52.700;7.306;2023-04-06T02:03:26;6.22;;;4.90;;
11187;SDS011;5650;52.700;7.306;2023-04-06T02:05:53;6.60;;;4.85;;
11187;SDS011;5650;52.700;7.306;2023-04-06T02:08:28;7.03;;;5.10;;
11187;SDS011;5650;52.700;7.306;2023-04-06T02:11:02;7.28;;;4.78;;
11187;SDS011;5650;52.700;7.306;2023-04-06T02:13:30;6.07;;;5.13;;
11187;SDS011;5650;52.700;7.306;2023-04-06T02:16:00;6.68;;;5.20;;
11187;SDS011;5650;52.700;7.306;2023-04-06T02:18:30;8.25;;;5.88;;
11187;SDS011;5650;52.700;7.306;2023-04-06T02:21:03;8.20;;;5.72;;
11187;SDS011;5650;52.700;7.306;2023-04-06T02:23:34;6.85;;;5.20;;
11187;SDS011;5650;52.700;7.306;2023-04-06T02:26:03;7.10;;;4.78;;
11187;SDS011;5650;52.700;7.306;2023-04-06T02:28:33;8.40;;;5.28;;
11187;SDS011;5650;52.700;7.306;2023-04-06T02:31:00;18.13;;;8.50;;
11187;SDS011;5650;52.700;7.306;2023-04-06T02:33:34;9.02;;;5.43;;
11187;SDS011;5650;52.700;7.306;2023-04-06T02:36:01;15.60;;;7.50;;
11187;SDS011;5650;52.700;7.306;2023-04-06T02:38:28;20.23;;;11.48;;
11187;SDS011;5650;52.700;7.306;2023-04-06T02:40:56;19.73;;;9.57;;
11187;SDS011;5650;52.700;7.306;2023-04-06T02:43:30;16.05;;;9.40;;
11187;SDS011;5650;52.700;7.306;2023-04-06T02:45:58;13.65;;;8.35;;
11187;SDS011;5650;52.700;7.306;2023-04-06T02:48:43;15.80;;;9.07;;
11187;SDS011;5650;52.700;7.306;2023-04-06T02:51:13;9.77;;;6.65;;
11187;SDS011;5650;52.700;7.306;2023-04-06T02:53:47;6.60;;;5.45;;
11187;SDS011;5650;52.700;7.306;2023-04-06T02:56:14;8.25;;;5.78;;
11187;SDS011;5650;52.700;7.306;2023-04-06T02:58:43;13.02;;;6.55;;
11187;SDS011;5650;52.700;7.306;2023-04-06T03:01:10;13.38;;;5.60;;
11187;SDS011;5650;52.700;7.306;2023-04-06T03:03:46;8.50;;;5.50;;
11187;SDS011;5650;52.700;7.306;2023-04-06T03:06:13;8.48;;;5.40;;
11187;SDS011;5650;52.700;7.306;2023-04-06T03:08:43;8.15;;;5.47;;
11187;SDS011;5650;52.700;7.306;2023-04-06T03:11:13;7.32;;;5.35;;
11187;SDS011;5650;52.700;7.306;2023-04-06T03:13:41;11.55;;;4.85;;
11187;SDS011;5650;52.700;7.306;2023-04-06T03:16:12;13.43;;;5.88;;
11187;SDS011;5650;52.700;7.306;2023-04-06T03:18:42;7.47;;;5.57;;
11187;SDS011;5650;52.700;7.306;2023-04-06T03:21:13;27.05;;;12.38;;
11187;SDS011;5650;52.700;7.306;2023-04-06T03:23:49;14.35;;;6.28;;
11187;SDS011;5650;52.700;7.306;2023-04-06T03:26:16;8.23;;;5.68;;
11187;SDS011;5650;52.700;7.306;2023-04-06T03:28:46;19.98;;;6.47;;
11187;SDS011;5650;52.700;7.306;2023-04-06T03:31:16;6.78;;;5.60;;
11187;SDS011;5650;52.700;7.306;2023-04-06T03:33:43;12.13;;;6.18;;
11187;SDS011;5650;52.700;7.306;2023-04-06T03:36:30;8.60;;;5.72;;
11187;SDS011;5650;52.700;7.306;2023-04-06T03:38:57;6.50;;;5.18;;
11187;SDS011;5650;52.700;7.306;2023-04-06T03:41:25;7.90;;;5.97;;
11187;SDS011;5650;52.700;7.306;2023-04-06T03:43:56;7.28;;;5.55;;
11187;SDS011;5650;52.700;7.306;2023-04-06T03:46:23;7.97;;;5.78;;
11187;SDS011;5650;52.700;7.306;2023-04-06T03:48:51;6.78;;;5.20;;
11187;SDS011;5650;52.700;7.306;2023-04-06T03:51:30;10.43;;;6.05;;
11187;SDS011;5650;52.700;7.306;2023-04-06T03:54:00;8.02;;;6.05;;
11187;SDS011;5650;52.700;7.306;2023-04-06T03:56:27;7.57;;;5.75;;
11187;SDS011;5650;52.700;7.306;2023-04-06T03:59:03;14.00;;;5.78;;
11187;SDS011;5650;52.700;7.306;2023-04-06T04:01:30;9.88;;;6.03;;
11187;SDS011;5650;52.700;7.306;2023-04-06T04:04:10;8.70;;;5.60;;
11187;SDS011;5650;52.700;7.306;2023-04-06T04:06:40;11.98;;;6.88;;
11187;SDS011;5650;52.700;7.306;2023-04-06T04:09:07;13.77;;;6.05;;
11187;SDS011;5650;52.700;7.306;2023-04-06T04:11:35;11.70;;;6.38;;
11187;SDS011;5650;52.700;7.306;2023-04-06T04:14:09;13.80;;;6.18;;
11187;SDS011;5650;52.700;7.306;2023-04-06T04:16:37;8.43;;;5.82;;
11187;SDS011;5650;52.700;7.306;2023-04-06T04:19:10;9.35;;;6.07;;
11187;SDS011;5650;52.700;7.306;2023-04-06T04:21:44;8.90;;;6.47;;
11187;SDS011;5650;52.700;7.306;2023-04-06T04:24:19;14.65;;;6.55;;
11187;SDS011;5650;52.700;7.306;2023-04-06T04:26:46;7.97;;;5.85;;
11187;SDS011;5650;52.700;7.306;2023-04-06T04:29:15;17.42;;;6.35;;
11187;SDS011;5650;52.700;7.306;2023-04-06T04:31:46;7.97;;;6.47;;
11187;SDS011;5650;52.700;7.306;2023-04-06T04:34:13;12.55;;;5.88;;
11187;SDS011;5650;52.700;7.306;2023-04-06T04:36:47;11.05;;;6.55;;
11187;SDS011;5650;52.700;7.306;2023-04-06T04:39:27;8.25;;;6.57;;
11187;SDS011;5650;52.700;7.306;2023-04-06T04:41:55;14.32;;;7.05;;
11187;SDS011;5650;52.700;7.306;2023-04-06T04:44:29;14.98;;;7.38;;
11187;SDS011;5650;52.700;7.306;2023-04-06T04:46:56;12.30;;;6.97;;
11187;SDS011;5650;52.700;7.306;2023-04-06T04:49:26;10.55;;;6.82;;
11187;SDS011;5650;52.700;7.306;2023-04-06T04:51:54;9.82;;;6.93;;
11187;SDS011;5650;52.700;7.306;2023-04-06T04:54:21;14.57;;;7.25;;
11187;SDS011;5650;52.700;7.306;2023-04-06T04:56:48;12.65;;;6.78;;
11187;SDS011;5650;52.700;7.306;2023-04-06T04:59:22;11.63;;;6.68;;
11187;SDS011;5650;52.700;7.306;2023-04-06T05:01:51;9.90;;;6.65;;
11187;SDS011;5650;52.700;7.306;2023-04-06T05:04:19;7.80;;;6.30;;
11187;SDS011;5650;52.700;7.306;2023-04-06T05:06:46;14.93;;;7.35;;
11187;SDS011;5650;52.700;7.306;2023-04-06T05:09:13;12.32;;;6.82;;
11187;SDS011;5650;52.700;7.306;2023-04-06T05:11:40;13.18;;;9.25;;
11187;SDS011;5650;52.700;7.306;2023-04-06T05:14:10;12.90;;;7.15;;
11187;SDS011;5650;52.700;7.306;2023-04-06T05:16:47;8.75;;;7.30;;
11187;SDS011;5650;52.700;7.306;2023-04-06T05:19:24;9.95;;;6.78;;
11187;SDS011;5650;52.700;7.306;2023-04-06T05:21:54;11.90;;;7.07;;
11187;SDS011;5650;52.700;7.306;2023-04-06T05:24:31;9.00;;;6.43;;
11187;SDS011;5650;52.700;7.306;2023-04-06T05:26:58;9.02;;;6.55;;
11187;SDS011;5650;52.700;7.306;2023-04-06T05:29:28;11.32;;;6.50;;
11187;SDS011;5650;52.700;7.306;2023-04-06T05:31:56;10.40;;;6.90;;
11187;SDS011;5650;52.700;7.306;2023-04-06T05:34:31;9.98;;;6.60;;
11187;SDS011;5650;52.700;7.306;2023-04-06T05:37:04;8.13;;;6.80;;
11187;SDS011;5650;52.700;7.306;2023-04-06T05:39:31;10.13;;;7.00;;
11187;SDS011;5650;52.700;7.306;2023-04-06T05:42:08;10.00;;;6.50;;
11187;SDS011;5650;52.700;7.306;2023-04-06T05:44:36;10.52;;;7.38;;
11187;SDS011;5650;52.700;7.306;2023-04-06T05:47:10;9.95;;;6.65;;
11187;SDS011;5650;52.700;7.306;2023-04-06T05:49:44;7.07;;;5.60;;
11187;SDS011;5650;52.700;7.306;2023-04-06T05:52:15;8.85;;;5.63;;
11187;SDS011;5650;52.700;7.306;2023-04-06T05:54:45;11.02;;;6.13;;
11187;SDS011;5650;52.700;7.306;2023-04-06T05:57:18;7.72;;;4.93;;
11187;SDS011;5650;52.700;7.306;2023-04-06T05:59:45;10.10;;;5.63;;
11187;SDS011;5650;52.700;7.306;2023-04-06T06:02:12;8.50;;;5.68;;
11187;SDS011;5650;52.700;7.306;2023-04-06T06:04:49;6.90;;;5.55;;
11187;SDS011;5650;52.700;7.306;2023-04-06T06:07:21;8.48;;;6.25;;
11187;SDS011;5650;52.700;7.306;2023-04-06T06:09:50;20.42;;;17.75;;
11187;SDS011;5650;52.700;7.306;2023-04-06T06:12:23;18.17;;;15.02;;
11187;SDS011;5650;52.700;7.306;2023-04-06T06:14:56;15.95;;;12.10;;
11187;SDS011;5650;52.700;7.306;2023-04-06T06:17:23;11.90;;;7.82;;
11187;SDS011;5650;52.700;7.306;2023-04-06T06:20:12;8.48;;;6.30;;
11187;SDS011;5650;52.700;7.306;2023-04-06T06:22:40;11.00;;;5.53;;
11187;SDS011;5650;52.700;7.306;2023-04-06T06:25:17;7.47;;;4.97;;
11187;SDS011;5650;52.700;7.306;2023-04-06T06:27:45;7.47;;;5.20;;
11187;SDS011;5650;52.700;7.306;2023-04-06T06:30:12;9.45;;;5.45;;
11187;SDS011;5650;52.700;7.306;2023-04-06T06:32:49;9.90;;;5.07;;
11187;SDS011;5650;52.700;7.306;2023-04-06T06:35:24;7.45;;;4.72;;
11187;SDS011;5650;52.700;7.306;2023-04-06T06:37:54;6.43;;;4.72;;
11187;SDS011;5650;52.700;7.306;2023-04-06T06:40:27;12.43;;;4.45;;
11187;SDS011;5650;52.700;7.306;2023-04-06T06:42:57;6.57;;;4.57;;
11187;SDS011;5650;52.700;7.306;2023-04-06T06:45:25;10.23;;;5.35;;
11187;SDS011;5650;52.700;7.306;2023-04-06T06:47:54;7.35;;;5.28;;
11187;SDS011;5650;52.700;7.306;2023-04-06T06:50:32;10.88;;;5.30;;
11187;SDS011;5650;52.700;7.306;2023-04-06T06:53:00;6.97;;;5.13;;
11187;SDS011;5650;52.700;7.306;2023-04-06T06:55:27;7.45;;;5.38;;
11187;SDS011;5650;52.700;7.306;2023-04-06T06:57:55;5.38;;;4.63;;
11187;SDS011;5650;52.700;7.306;2023-04-06T07:00:34;6.53;;;4.70;;
11187;SDS011;5650;52.700;7.306;2023-04-06T07:03:02;7.60;;;5.35;;
11187;SDS011;5650;52.700;7.306;2023-04-06T07:05:33;8.30;;;5.53;;
11187;SDS011;5650;52.700;7.306;2023-04-06T07:08:14;9.25;;;5.47;;
11187;SDS011;5650;52.700;7.306;2023-04-06T07:10:41;7.05;;;4.90;;
11187;SDS011;5650;52.700;7.306;2023-04-06T07:13:08;7.13;;;5.20;;
11187;SDS011;5650;52.700;7.306;2023-04-06T07:15:36;7.70;;;5.13;;
11187;SDS011;5650;52.700;7.306;2023-04-06T07:18:09;8.13;;;4.90;;
11187;SDS011;5650;52.700;7.306;2023-04-06T07:20:41;8.63;;;5.38;;
11187;SDS011;5650;52.700;7.306;2023-04-06T07:23:08;9.73;;;5.50;;
11187;SDS011;5650;52.700;7.306;2023-04-06T07:25:39;8.02;;;5.10;;
11187;SDS011;5650;52.700;7.306;2023-04-06T07:28:16;8.20;;;5.70;;
11187;SDS011;5650;52.700;7.306;2023-04-06T07:30:43;6.75;;;5.10;;
11187;SDS011;5650;52.700;7.306;2023-04-06T07:33:10;8.50;;;5.93;;
11187;SDS011;5650;52.700;7.306;2023-04-06T07:35:50;11.27;;;5.70;;
11187;SDS011;5650;52.700;7.306;2023-04-06T07:38:18;9.65;;;5.80;;
11187;SDS011;5650;52.700;7.306;2023-04-06T07:40:48;7.55;;;5.72;;
11187;SDS011;5650;52.700;7.306;2023-04-06T07:43:18;12.05;;;5.70;;
11187;SDS011;5650;52.700;7.306;2023-04-06T07:45:45;7.05;;;5.60;;
11187;SDS011;5650;52.700;7.306;2023-04-06T07:48:13;10.50;;;6.57;;
11187;SDS011;5650;52.700;7.306;2023-04-06T07:50:41;9.18;;;6.10;;
11187;SDS011;5650;52.700;7.306;2023-04-06T07:53:18;10.45;;;5.90;;
11187;SDS011;5650;52.700;7.306;2023-04-06T07:55:55;7.05;;;6.13;;
11187;SDS011;5650;52.700;7.306;2023-04-06T07:58:22;7.07;;;5.95;;
11187;SDS011;5650;52.700;7.306;2023-04-06T08:00:49;8.80;;;5.60;;
11187;SDS011;5650;52.700;7.306;2023-04-06T08:03:25;7.35;;;6.28;;
11187;SDS011;5650;52.700;7.306;2023-04-06T08:05:58;14.35;;;6.22;;
11187;SDS011;5650;52.700;7.306;2023-04-06T08:10:58;9.38;;;6.68;;
11187;SDS011;5650;52.700;7.306;2023-04-06T08:13:27;10.00;;;6.45;;
11187;SDS011;5650;52.700;7.306;2023-04-06T08:15:55;13.05;;;6.88;;
11187;SDS011;5650;52.700;7.306;2023-04-06T08:18:23;11.48;;;6.68;;
11187;SDS011;5650;52.700;7.306;2023-04-06T08:20:54;13.48;;;7.78;;
11187;SDS011;5650;52.700;7.306;2023-04-06T08:23:24;9.18;;;6.63;;
11187;SDS011;5650;52.700;7.306;2023-04-06T08:25:58;14.60;;;7.15;;
11187;SDS011;5650;52.700;7.306;2023-04-06T08:28:26;8.30;;;6.60;;
11187;SDS011;5650;52.700;7.306;2023-04-06T08:30:56;9.50;;;7.45;;
11187;SDS011;5650;52.700;7.306;2023-04-06T08:33:23;8.68;;;6.68;;
11187;SDS011;5650;52.700;7.306;2023-04-06T08:35:51;14.45;;;7.35;;
11187;SDS011;5650;52.700;7.306;2023-04-06T08:38:21;10.93;;;6.95;;
11187;SDS011;5650;52.700;7.306;2023-04-06T08:40:48;11.77;;;7.28;;
11187;SDS011;5650;52.700;7.306;2023-04-06T08:43:18;9.75;;;7.03;;
11187;SDS011;5650;52.700;7.306;2023-04-06T08:45:49;10.57;;;7.60;;
11187;SDS011;5650;52.700;7.306;2023-04-06T08:48:17;15.80;;;7.65;;
11187;SDS011;5650;52.700;7.306;2023-04-06T08:50:45;12.40;;;7.93;;
11187;SDS011;5650;52.700;7.306;2023-04-06T08:53:15;9.82;;;7.55;;
11187;SDS011;5650;52.700;7.306;2023-04-06T08:55:42;10.20;;;8.13;;
11187;SDS011;5650;52.700;7.306;2023-04-06T08:58:20;13.10;;;8.15;;
11187;SDS011;5650;52.700;7.306;2023-04-06T09:00:48;12.60;;;9.23;;
11187;SDS011;5650;52.700;7.306;2023-04-06T09:03:17;11.35;;;8.13;;
11187;SDS011;5650;52.700;7.306;2023-04-06T09:05:48;18.83;;;9.27;;
11187;SDS011;5650;52.700;7.306;2023-04-06T09:08:16;15.05;;;8.65;;
11187;SDS011;5650;52.700;7.306;2023-04-06T09:10:47;10.80;;;8.20;;
11187;SDS011;5650;52.700;7.306;2023-04-06T09:13:24;13.65;;;8.82;;
11187;SDS011;5650;52.700;7.306;2023-04-06T09:16:00;11.27;;;8.40;;
11187;SDS011;5650;52.700;7.306;2023-04-06T09:18:29;11.10;;;8.95;;
11187;SDS011;5650;52.700;7.306;2023-04-06T09:21:05;12.23;;;8.77;;
11187;SDS011;5650;52.700;7.306;2023-04-06T09:23:36;13.75;;;8.45;;
11187;SDS011;5650;52.700;7.306;2023-04-06T09:26:08;13.52;;;8.55;;
11187;SDS011;5650;52.700;7.306;2023-04-06T09:28:47;11.10;;;8.50;;
11187;SDS011;5650;52.700;7.306;2023-04-06T09:31:25;8.80;;;7.90;;
11187;SDS011;5650;52.700;7.306;2023-04-06T09:33:53;11.57;;;8.32;;
11187;SDS011;5650;52.700;7.306;2023-04-06T09:36:28;13.95;;;8.52;;
11187;SDS011;5650;52.700;7.306;2023-04-06T09:39:03;13.05;;;8.50;;
11187;SDS011;5650;52.700;7.306;2023-04-06T09:41:31;10.98;;;8.82;;
11187;SDS011;5650;52.700;7.306;2023-04-06T09:44:05;11.82;;;8.93;;
11187;SDS011;5650;52.700;7.306;2023-04-06T09:46:36;14.40;;;9.13;;
11187;SDS011;5650;52.700;7.306;2023-04-06T09:49:04;11.20;;;8.45;;
11187;SDS011;5650;52.700;7.306;2023-04-06T09:51:35;12.55;;;9.00;;
11187;SDS011;5650;52.700;7.306;2023-04-06T09:54:06;12.15;;;9.00;;
11187;SDS011;5650;52.700;7.306;2023-04-06T09:56:39;12.65;;;8.73;;
11187;SDS011;5650;52.700;7.306;2023-04-06T09:59:16;11.80;;;8.65;;
11187;SDS011;5650;52.700;7.306;2023-04-06T10:01:51;17.27;;;9.52;;
11187;SDS011;5650;52.700;7.306;2023-04-06T10:04:25;11.68;;;9.38;;
11187;SDS011;5650;52.700;7.306;2023-04-06T10:07:02;12.00;;;9.63;;
11187;SDS011;5650;52.700;7.306;2023-04-06T10:09:33;14.38;;;9.98;;
11187;SDS011;5650;52.700;7.306;2023-04-06T10:12:06;16.00;;;10.85;;
11187;SDS011;5650;52.700;7.306;2023-04-06T10:14:36;14.38;;;10.35;;
11187;SDS011;5650;52.700;7.306;2023-04-06T10:17:09;20.38;;;11.07;;
11187;SDS011;5650;52.700;7.306;2023-04-06T10:19:46;15.98;;;10.95;;
11187;SDS011;5650;52.700;7.306;2023-04-06T10:22:20;13.75;;;10.98;;
11187;SDS011;5650;52.700;7.306;2023-04-06T10:24:50;15.20;;;10.73;;
11187;SDS011;5650;52.700;7.306;2023-04-06T10:27:27;17.05;;;12.27;;
11187;SDS011;5650;52.700;7.306;2023-04-06T10:30:03;20.38;;;12.93;;
11187;SDS011;5650;52.700;7.306;2023-04-06T10:32:34;13.95;;;11.38;;
11187;SDS011;5650;52.700;7.306;2023-04-06T10:35:05;17.08;;;12.32;;
11187;SDS011;5650;52.700;7.306;2023-04-06T10:37:45;16.90;;;12.90;;
11187;SDS011;5650;52.700;7.306;2023-04-06T10:40:21;19.77;;;12.40;;
11187;SDS011;5650;52.700;7.306;2023-04-06T10:42:50;19.38;;;13.48;;
11187;SDS011;5650;52.700;7.306;2023-04-06T10:45:20;21.05;;;13.15;;
11187;SDS011;5650;52.700;7.306;2023-04-06T10:47:52;18.63;;;14.15;;
11187;SDS011;5650;52.700;7.306;2023-04-06T10:50:20;23.00;;;13.77;;
11187;SDS011;5650;52.700;7.306;2023-04-06T10:52:58;19.50;;;14.48;;
11187;SDS011;5650;52.700;7.306;2023-04-06T10:55:29;21.75;;;14.18;;
11187;SDS011;5650;52.700;7.306;2023-04-06T10:57:57;20.88;;;13.75;;
11187;SDS011;5650;52.700;7.306;2023-04-06T11:00:31;18.65;;;13.70;;
11187;SDS011;5650;52.700;7.306;2023-04-06T11:03:01;17.48;;;13.55;;
11187;SDS011;5650;52.700;7.306;2023-04-06T11:05:31;18.20;;;13.48;;
11187;SDS011;5650;52.700;7.306;2023-04-06T11:08:08;18.58;;;13.77;;
11187;SDS011;5650;52.700;7.306;2023-04-06T11:10:35;18.52;;;13.40;;
11187;SDS011;5650;52.700;7.306;2023-04-06T11:13:02;17.67;;;13.80;;
11187;SDS011;5650;52.700;7.306;2023-04-06T11:15:37;21.40;;;14.02;;
11187;SDS011;5650;52.700;7.306;2023-04-06T11:18:10;17.48;;;14.40;;
11187;SDS011;5650;52.700;7.306;2023-04-06T11:20:46;19.85;;;14.50;;
11187;SDS011;5650;52.700;7.306;2023-04-06T11:23:21;18.25;;;14.20;;
11187;SDS011;5650;52.700;7.306;2023-04-06T11:25:53;16.85;;;14.05;;
11187;SDS011;5650;52.700;7.306;2023-04-06T11:28:27;17.48;;;14.10;;
11187;SDS011;5650;52.700;7.306;2023-04-06T11:30:56;24.10;;;14.57;;
11187;SDS011;5650;52.700;7.306;2023-04-06T11:33:23;20.73;;;13.50;;
11187;SDS011;5650;52.700;7.306;2023-04-06T11:35:50;17.33;;;13.95;;
11187;SDS011;5650;52.700;7.306;2023-04-06T11:38:20;20.15;;;15.00;;
11187;SDS011;5650;52.700;7.306;2023-04-06T11:40:52;19.50;;;13.50;;
11187;SDS011;5650;52.700;7.306;2023-04-06T11:43:28;18.48;;;14.35;;
11187;SDS011;5650;52.700;7.306;2023-04-06T11:46:04;19.83;;;14.82;;
11187;SDS011;5650;52.700;7.306;2023-04-06T11:48:43;18.77;;;13.85;;
11187;SDS011;5650;52.700;7.306;2023-04-06T11:51:30;21.40;;;14.13;;
11187;SDS011;5650;52.700;7.306;2023-04-06T11:54:05;20.55;;;14.70;;
11187;SDS011;5650;52.700;7.306;2023-04-06T11:56:35;22.75;;;14.43;;
11187;SDS011;5650;52.700;7.306;2023-04-06T11:59:02;18.92;;;14.88;;
11187;SDS011;5650;52.700;7.306;2023-04-06T12:01:44;23.70;;;15.15;;
11187;SDS011;5650;52.700;7.306;2023-04-06T12:04:14;19.38;;;15.45;;
11187;SDS011;5650;52.700;7.306;2023-04-06T12:06:42;23.23;;;16.33;;
11187;SDS011;5650;52.700;7.306;2023-04-06T12:09:13;17.52;;;14.60;;
11187;SDS011;5650;52.700;7.306;2023-04-06T12:11:40;17.10;;;15.02;;
11187;SDS011;5650;52.700;7.306;2023-04-06T12:14:13;21.58;;;16.15;;
11187;SDS011;5650;52.700;7.306;2023-04-06T12:16:51;20.25;;;15.85;;
11187;SDS011;5650;52.700;7.306;2023-04-06T12:19:18;19.13;;;14.82;;
11187;SDS011;5650;52.700;7.306;2023-04-06T12:21:55;23.17;;;16.40;;
11187;SDS011;5650;52.700;7.306;2023-04-06T12:24:29;21.75;;;16.48;;
11187;SDS011;5650;52.700;7.306;2023-04-06T12:26:56;20.45;;;15.85;;
11187;SDS011;5650;52.700;7.306;2023-04-06T12:29:26;21.20;;;16.48;;
11187;SDS011;5650;52.700;7.306;2023-04-06T12:31:55;20.60;;;15.93;;
11187;SDS011;5650;52.700;7.306;2023-04-06T12:34:25;21.13;;;16.30;;
11187;SDS011;5650;52.700;7.306;2023-04-06T12:36:52;19.67;;;14.90;;
11187;SDS011;5650;52.700;7.306;2023-04-06T12:39:20;19.92;;;16.13;;
11187;SDS011;5650;52.700;7.306;2023-04-06T12:41:48;20.33;;;15.27;;
11187;SDS011;5650;52.700;7.306;2023-04-06T12:44:22;18.67;;;15.02;;
11187;SDS011;5650;52.700;7.306;2023-04-06T12:46:49;18.67;;;14.75;;
11187;SDS011;5650;52.700;7.306;2023-04-06T12:49:22;21.13;;;14.70;;
11187;SDS011;5650;52.700;7.306;2023-04-06T12:51:52;18.83;;;14.80;;
11187;SDS011;5650;52.700;7.306;2023-04-06T12:54:19;23.83;;;15.13;;
11187;SDS011;5650;52.700;7.306;2023-04-06T12:56:55;19.23;;;15.23;;
11187;SDS011;5650;52.700;7.306;2023-04-06T12:59:23;18.50;;;14.73;;
11187;SDS011;5650;52.700;7.306;2023-04-06T13:01:53;19.25;;;14.95;;
11187;SDS011;5650;52.700;7.306;2023-04-06T13:04:22;22.75;;;14.45;;
11187;SDS011;5650;52.700;7.306;2023-04-06T13:06:50;21.05;;;14.85;;
11187;SDS011;5650;52.700;7.306;2023-04-06T13:09:20;19.00;;;15.13;;
11187;SDS011;5650;52.700;7.306;2023-04-06T13:11:56;19.30;;;15.48;;
11187;SDS011;5650;52.700;7.306;2023-04-06T13:14:29;18.83;;;15.25;;
11187;SDS011;5650;52.700;7.306;2023-04-06T13:16:57;20.17;;;15.50;;
11187;SDS011;5650;52.700;7.306;2023-04-06T13:19:26;17.60;;;15.38;;
11187;SDS011;5650;52.700;7.306;2023-04-06T13:21:53;22.50;;;16.60;;
11187;SDS011;5650;52.700;7.306;2023-04-06T13:24:21;23.80;;;16.20;;
11187;SDS011;5650;52.700;7.306;2023-04-06T13:26:51;20.45;;;16.45;;
11187;SDS011;5650;52.700;7.306;2023-04-06T13:29:18;25.42;;;16.92;;
11187;SDS011;5650;52.700;7.306;2023-04-06T13:31:49;19.80;;;16.23;;
11187;SDS011;5650;52.700;7.306;2023-04-06T13:34:16;20.60;;;17.15;;
11187;SDS011;5650;52.700;7.306;2023-04-06T13:36:45;23.15;;;17.88;;
11187;SDS011;5650;52.700;7.306;2023-04-06T13:39:15;24.45;;;17.85;;
11187;SDS011;5650;52.700;7.306;2023-04-06T13:41:48;24.35;;;18.02;;
11187;SDS011;5650;52.700;7.306;2023-04-06T13:44:18;20.83;;;17.88;;
11187;SDS011;5650;52.700;7.306;2023-04-06T13:46:45;24.95;;;18.23;;
11187;SDS011;5650;52.700;7.306;2023-04-06T13:49:15;20.30;;;16.88;;
11187;SDS011;5650;52.700;7.306;2023-04-06T13:51:50;23.23;;;17.65;;
11187;SDS011;5650;52.700;7.306;2023-04-06T13:54:17;21.40;;;18.35;;
11187;SDS011;5650;52.700;7.306;2023-04-06T13:56:45;22.20;;;18.63;;
11187;SDS011;5650;52.700;7.306;2023-04-06T13:59:13;24.13;;;19.02;;
11187;SDS011;5650;52.700;7.306;2023-04-06T14:01:52;27.15;;;18.75;;
11187;SDS011;5650;52.700;7.306;2023-04-06T14:04:22;24.20;;;18.60;;
11187;SDS011;5650;52.700;7.306;2023-04-06T14:06:51;24.92;;;19.00;;
11187;SDS011;5650;52.700;7.306;2023-04-06T14:09:24;23.33;;;18.95;;
11187;SDS011;5650;52.700;7.306;2023-04-06T14:11:51;26.02;;;18.65;;
11187;SDS011;5650;52.700;7.306;2023-04-06T14:14:25;24.55;;;18.83;;
11187;SDS011;5650;52.700;7.306;2023-04-06T14:16:52;23.17;;;18.83;;
11187;SDS011;5650;52.700;7.306;2023-04-06T14:19:22;21.92;;;18.48;;
11187;SDS011;5650;52.700;7.306;2023-04-06T14:21:50;25.10;;;19.73;;
11187;SDS011;5650;52.700;7.306;2023-04-06T14:24:20;28.38;;;19.90;;
11187;SDS011;5650;52.700;7.306;2023-04-06T14:26:49;24.33;;;18.75;;
11187;SDS011;5650;52.700;7.306;2023-04-06T14:29:20;26.70;;;19.33;;
11187;SDS011;5650;52.700;7.306;2023-04-06T14:31:47;23.30;;;17.90;;
11187;SDS011;5650;52.700;7.306;2023-04-06T14:34:15;25.30;;;20.55;;
11187;SDS011;5650;52.700;7.306;2023-04-06T14:36:42;24.08;;;18.70;;
11187;SDS011;5650;52.700;7.306;2023-04-06T14:39:11;24.90;;;18.63;;
11187;SDS011;5650;52.700;7.306;2023-04-06T14:41:41;20.88;;;18.45;;
11187;SDS011;5650;52.700;7.306;2023-04-06T14:44:14;22.98;;;18.40;;
11187;SDS011;5650;52.700;7.306;2023-04-06T14:46:45;23.33;;;20.20;;
11187;SDS011;5650;52.700;7.306;2023-04-06T14:49:15;26.02;;;18.20;;
11187;SDS011;5650;52.700;7.306;2023-04-06T14:51:45;21.75;;;18.55;;
11187;SDS011;5650;52.700;7.306;2023-04-06T14:54:21;22.13;;;19.50;;
11187;SDS011;5650;52.700;7.306;2023-04-06T14:56:48;28.45;;;19.63;;
11187;SDS011;5650;52.700;7.306;2023-04-06T14:59:16;23.42;;;18.80;;
11187;SDS011;5650;52.700;7.306;2023-04-06T15:01:49;26.08;;;19.13;;
11187;SDS011;5650;52.700;7.306;2023-04-06T15:04:21;22.25;;;18.60;;
11187;SDS011;5650;52.700;7.306;2023-04-06T15:06:51;24.70;;;19.27;;
11187;SDS011;5650;52.700;7.306;2023-04-06T15:09:20;24.38;;;18.67;;
11187;SDS011;5650;52.700;7.306;2023-04-06T15:11:47;20.52;;;17.85;;